sensor_id;sensor_type;location;lat;lon;timestamp;P1;durP1;ratioP1;P2;durP2;ratioP2
11121;SDS011;5615;49.304;10.576;2024-01-07T00:00:51;23.00;;;13.93;;
11121;SDS011;5615;49.304;10.576;2024-01-07T00:03:19;18.57;;;13.57;;
11121;SDS011;5615;49.304;10.576;2024-01-07T00:05:46;18.87;;;13.93;;
11121;SDS011;5615;49.304;10.576;2024-01-07T00:08:13;24.43;;;14.80;;
11121;SDS011;5615;49.304;10.576;2024-01-07T00:10:39;20.53;;;13.80;;
11121;SDS011;5615;49.304;10.576;2024-01-07T00:13:06;18.90;;;14.07;;
11121;SDS011;5615;49.304;10.576;2024-01-07T00:15:32;19.63;;;13.10;;
11121;SDS011;5615;49.304;10.576;2024-01-07T00:17:59;20.87;;;14.37;;
11121;SDS011;5615;49.304;10.576;2024-01-07T00:20:27;20.57;;;14.37;;
11121;SDS011;5615;49.304;10.576;2024-01-07T00:22:54;25.03;;;16.20;;
11121;SDS011;5615;49.304;10.576;2024-01-07T00:25:21;19.97;;;14.57;;
11121;SDS011;5615;49.304;10.576;2024-01-07T00:27:48;19.33;;;14.70;;
11121;SDS011;5615;49.304;10.576;2024-01-07T00:30:16;21.07;;;14.67;;
11121;SDS011;5615;49.304;10.576;2024-01-07T00:32:44;22.67;;;13.87;;
11121;SDS011;5615;49.304;10.576;2024-01-07T00:35:11;22.60;;;14.90;;
11121;SDS011;5615;49.304;10.576;2024-01-07T00:37:39;24.10;;;15.70;;
11121;SDS011;5615;49.304;10.576;2024-01-07T00:40:06;21.77;;;14.50;;
11121;SDS011;5615;49.304;10.576;2024-01-07T00:42:33;21.00;;;14.47;;
11121;SDS011;5615;49.304;10.576;2024-01-07T00:45:00;22.73;;;14.27;;
11121;SDS011;5615;49.304;10.576;2024-01-07T00:47:27;18.50;;;14.83;;
11121;SDS011;5615;49.304;10.576;2024-01-07T00:49:53;19.83;;;14.60;;
11121;SDS011;5615;49.304;10.576;2024-01-07T00:52:20;20.27;;;14.40;;
11121;SDS011;5615;49.304;10.576;2024-01-07T00:54:49;24.50;;;14.27;;
11121;SDS011;5615;49.304;10.576;2024-01-07T00:57:16;20.07;;;15.07;;
11121;SDS011;5615;49.304;10.576;2024-01-07T00:59:42;20.63;;;15.07;;
11121;SDS011;5615;49.304;10.576;2024-01-07T01:02:09;19.77;;;13.93;;
11121;SDS011;5615;49.304;10.576;2024-01-07T01:04:38;20.03;;;13.97;;
11121;SDS011;5615;49.304;10.576;2024-01-07T01:07:04;19.93;;;15.00;;
11121;SDS011;5615;49.304;10.576;2024-01-07T01:09:32;17.67;;;13.90;;
11121;SDS011;5615;49.304;10.576;2024-01-07T01:12:00;19.83;;;14.73;;
11121;SDS011;5615;49.304;10.576;2024-01-07T01:14:27;21.00;;;15.00;;
11121;SDS011;5615;49.304;10.576;2024-01-07T01:16:53;21.27;;;14.67;;
11121;SDS011;5615;49.304;10.576;2024-01-07T01:19:20;24.17;;;14.83;;
11121;SDS011;5615;49.304;10.576;2024-01-07T01:21:47;21.80;;;14.60;;
11121;SDS011;5615;49.304;10.576;2024-01-07T01:24:13;19.93;;;15.20;;
11121;SDS011;5615;49.304;10.576;2024-01-07T01:26:40;17.13;;;13.37;;
11121;SDS011;5615;49.304;10.576;2024-01-07T01:29:08;19.03;;;14.13;;
11121;SDS011;5615;49.304;10.576;2024-01-07T01:31:34;19.23;;;14.53;;
11121;SDS011;5615;49.304;10.576;2024-01-07T01:34:01;18.10;;;13.43;;
11121;SDS011;5615;49.304;10.576;2024-01-07T01:36:30;25.90;;;15.13;;
11121;SDS011;5615;49.304;10.576;2024-01-07T01:38:57;19.60;;;14.03;;
11121;SDS011;5615;49.304;10.576;2024-01-07T01:41:23;20.97;;;15.70;;
11121;SDS011;5615;49.304;10.576;2024-01-07T01:43:50;19.77;;;14.77;;
11121;SDS011;5615;49.304;10.576;2024-01-07T01:46:18;22.37;;;16.13;;
11121;SDS011;5615;49.304;10.576;2024-01-07T01:48:45;20.93;;;15.13;;
11121;SDS011;5615;49.304;10.576;2024-01-07T01:51:11;20.63;;;15.47;;
11121;SDS011;5615;49.304;10.576;2024-01-07T01:53:38;23.80;;;15.63;;
11121;SDS011;5615;49.304;10.576;2024-01-07T01:56:06;21.73;;;15.73;;
11121;SDS011;5615;49.304;10.576;2024-01-07T01:58:32;23.97;;;15.97;;
11121;SDS011;5615;49.304;10.576;2024-01-07T02:00:59;21.60;;;16.27;;
11121;SDS011;5615;49.304;10.576;2024-01-07T02:03:27;25.70;;;16.10;;
11121;SDS011;5615;49.304;10.576;2024-01-07T02:05:54;23.77;;;16.23;;
11121;SDS011;5615;49.304;10.576;2024-01-07T02:08:21;24.77;;;16.07;;
11121;SDS011;5615;49.304;10.576;2024-01-07T02:10:48;23.77;;;16.03;;
11121;SDS011;5615;49.304;10.576;2024-01-07T02:13:14;24.67;;;16.47;;
11121;SDS011;5615;49.304;10.576;2024-01-07T02:15:42;22.40;;;15.80;;
11121;SDS011;5615;49.304;10.576;2024-01-07T02:18:09;23.20;;;16.47;;
11121;SDS011;5615;49.304;10.576;2024-01-07T02:20:37;23.13;;;16.80;;
11121;SDS011;5615;49.304;10.576;2024-01-07T02:23:03;25.60;;;16.43;;
11121;SDS011;5615;49.304;10.576;2024-01-07T02:25:35;27.73;;;16.60;;
11121;SDS011;5615;49.304;10.576;2024-01-07T02:28:02;24.70;;;16.70;;
11121;SDS011;5615;49.304;10.576;2024-01-07T02:30:29;26.17;;;16.77;;
11121;SDS011;5615;49.304;10.576;2024-01-07T02:32:56;24.27;;;16.37;;
11121;SDS011;5615;49.304;10.576;2024-01-07T02:35:26;23.23;;;15.80;;
11121;SDS011;5615;49.304;10.576;2024-01-07T02:37:53;23.27;;;16.13;;
11121;SDS011;5615;49.304;10.576;2024-01-07T02:40:19;22.93;;;15.90;;
11121;SDS011;5615;49.304;10.576;2024-01-07T02:42:48;22.03;;;16.23;;
11121;SDS011;5615;49.304;10.576;2024-01-07T02:45:14;22.43;;;16.70;;
11121;SDS011;5615;49.304;10.576;2024-01-07T02:47:42;21.23;;;15.73;;
11121;SDS011;5615;49.304;10.576;2024-01-07T02:50:09;23.03;;;16.40;;
11121;SDS011;5615;49.304;10.576;2024-01-07T02:52:36;20.37;;;15.60;;
11121;SDS011;5615;49.304;10.576;2024-01-07T02:55:02;21.73;;;16.67;;
11121;SDS011;5615;49.304;10.576;2024-01-07T02:57:29;23.07;;;15.83;;
11121;SDS011;5615;49.304;10.576;2024-01-07T02:59:57;22.47;;;16.57;;
11121;SDS011;5615;49.304;10.576;2024-01-07T03:02:24;22.17;;;15.33;;
11121;SDS011;5615;49.304;10.576;2024-01-07T03:04:50;22.87;;;16.53;;
11121;SDS011;5615;49.304;10.576;2024-01-07T03:07:17;22.57;;;15.43;;
11121;SDS011;5615;49.304;10.576;2024-01-07T03:09:44;21.37;;;15.87;;
11121;SDS011;5615;49.304;10.576;2024-01-07T03:12:10;22.50;;;15.80;;
11121;SDS011;5615;49.304;10.576;2024-01-07T03:14:37;20.37;;;15.37;;
11121;SDS011;5615;49.304;10.576;2024-01-07T03:17:05;22.50;;;15.47;;
11121;SDS011;5615;49.304;10.576;2024-01-07T03:19:32;20.97;;;14.73;;
11121;SDS011;5615;49.304;10.576;2024-01-07T03:21:59;20.03;;;14.67;;
11121;SDS011;5615;49.304;10.576;2024-01-07T03:24:25;23.93;;;15.97;;
11121;SDS011;5615;49.304;10.576;2024-01-07T03:26:52;22.40;;;16.37;;
11121;SDS011;5615;49.304;10.576;2024-01-07T03:29:19;21.70;;;15.87;;
11121;SDS011;5615;49.304;10.576;2024-01-07T03:31:45;21.70;;;15.13;;
11121;SDS011;5615;49.304;10.576;2024-01-07T03:34:13;21.43;;;15.47;;
11121;SDS011;5615;49.304;10.576;2024-01-07T03:36:40;21.37;;;15.67;;
11121;SDS011;5615;49.304;10.576;2024-01-07T03:39:06;21.90;;;15.03;;
11121;SDS011;5615;49.304;10.576;2024-01-07T03:41:33;21.30;;;15.47;;
11121;SDS011;5615;49.304;10.576;2024-01-07T03:44:00;19.33;;;14.47;;
11121;SDS011;5615;49.304;10.576;2024-01-07T03:46:27;18.37;;;13.47;;
11121;SDS011;5615;49.304;10.576;2024-01-07T03:48:53;18.73;;;13.63;;
11121;SDS011;5615;49.304;10.576;2024-01-07T03:51:22;15.87;;;12.13;;
11121;SDS011;5615;49.304;10.576;2024-01-07T03:53:49;15.20;;;11.97;;
11121;SDS011;5615;49.304;10.576;2024-01-07T03:56:15;15.37;;;11.87;;
11121;SDS011;5615;49.304;10.576;2024-01-07T03:58:42;15.83;;;12.10;;
11121;SDS011;5615;49.304;10.576;2024-01-07T04:01:09;13.30;;;11.53;;
11121;SDS011;5615;49.304;10.576;2024-01-07T04:03:35;17.17;;;12.57;;
11121;SDS011;5615;49.304;10.576;2024-01-07T04:06:06;15.43;;;11.90;;
11121;SDS011;5615;49.304;10.576;2024-01-07T04:08:34;14.57;;;11.23;;
11121;SDS011;5615;49.304;10.576;2024-01-07T04:11:02;14.73;;;11.53;;
11121;SDS011;5615;49.304;10.576;2024-01-07T04:13:29;16.10;;;12.57;;
11121;SDS011;5615;49.304;10.576;2024-01-07T04:15:55;15.17;;;12.13;;
11121;SDS011;5615;49.304;10.576;2024-01-07T04:18:22;17.27;;;12.27;;
11121;SDS011;5615;49.304;10.576;2024-01-07T04:20:48;17.07;;;12.97;;
11121;SDS011;5615;49.304;10.576;2024-01-07T04:23:15;17.60;;;12.93;;
11121;SDS011;5615;49.304;10.576;2024-01-07T04:25:43;15.97;;;12.50;;
11121;SDS011;5615;49.304;10.576;2024-01-07T04:28:10;15.90;;;12.50;;
11121;SDS011;5615;49.304;10.576;2024-01-07T04:30:36;16.37;;;12.20;;
11121;SDS011;5615;49.304;10.576;2024-01-07T04:33:03;15.57;;;12.07;;
11121;SDS011;5615;49.304;10.576;2024-01-07T04:35:30;14.13;;;11.33;;
11121;SDS011;5615;49.304;10.576;2024-01-07T04:37:57;12.87;;;10.20;;
11121;SDS011;5615;49.304;10.576;2024-01-07T04:40:23;13.90;;;11.00;;
11121;SDS011;5615;49.304;10.576;2024-01-07T04:42:51;13.20;;;10.13;;
11121;SDS011;5615;49.304;10.576;2024-01-07T04:45:18;11.90;;;10.00;;
11121;SDS011;5615;49.304;10.576;2024-01-07T04:47:44;13.60;;;10.00;;
11121;SDS011;5615;49.304;10.576;2024-01-07T04:50:11;14.20;;;10.83;;
11121;SDS011;5615;49.304;10.576;2024-01-07T04:52:40;12.40;;;9.87;;
11121;SDS011;5615;49.304;10.576;2024-01-07T04:55:07;13.73;;;10.50;;
11121;SDS011;5615;49.304;10.576;2024-01-07T04:57:34;14.47;;;10.37;;
11121;SDS011;5615;49.304;10.576;2024-01-07T05:00:02;13.60;;;10.17;;
11121;SDS011;5615;49.304;10.576;2024-01-07T05:02:30;13.90;;;10.33;;
11121;SDS011;5615;49.304;10.576;2024-01-07T05:04:57;13.30;;;10.20;;
11121;SDS011;5615;49.304;10.576;2024-01-07T05:07:23;13.43;;;9.90;;
11121;SDS011;5615;49.304;10.576;2024-01-07T05:09:50;13.63;;;10.07;;
11121;SDS011;5615;49.304;10.576;2024-01-07T05:12:17;12.87;;;9.47;;
11121;SDS011;5615;49.304;10.576;2024-01-07T05:14:43;15.83;;;9.93;;
11121;SDS011;5615;49.304;10.576;2024-01-07T05:17:12;14.07;;;9.57;;
11121;SDS011;5615;49.304;10.576;2024-01-07T05:19:39;11.57;;;8.77;;
11121;SDS011;5615;49.304;10.576;2024-01-07T05:22:06;12.37;;;9.10;;
11121;SDS011;5615;49.304;10.576;2024-01-07T05:24:33;12.47;;;8.23;;
11121;SDS011;5615;49.304;10.576;2024-01-07T05:26:59;12.37;;;9.23;;
11121;SDS011;5615;49.304;10.576;2024-01-07T05:29:26;9.97;;;7.77;;
11121;SDS011;5615;49.304;10.576;2024-01-07T05:31:53;10.40;;;7.53;;
11121;SDS011;5615;49.304;10.576;2024-01-07T05:34:21;8.30;;;7.20;;
11121;SDS011;5615;49.304;10.576;2024-01-07T05:36:47;9.93;;;7.33;;
11121;SDS011;5615;49.304;10.576;2024-01-07T05:39:14;10.20;;;7.27;;
11121;SDS011;5615;49.304;10.576;2024-01-07T05:41:40;11.60;;;7.30;;
11121;SDS011;5615;49.304;10.576;2024-01-07T05:44:07;8.80;;;6.90;;
11121;SDS011;5615;49.304;10.576;2024-01-07T05:46:34;8.93;;;6.90;;
11121;SDS011;5615;49.304;10.576;2024-01-07T05:49:03;9.10;;;6.90;;
11121;SDS011;5615;49.304;10.576;2024-01-07T05:51:31;7.63;;;6.57;;
11121;SDS011;5615;49.304;10.576;2024-01-07T05:53:58;8.27;;;6.80;;
11121;SDS011;5615;49.304;10.576;2024-01-07T05:56:25;8.80;;;6.53;;
11121;SDS011;5615;49.304;10.576;2024-01-07T05:58:51;9.00;;;6.90;;
11121;SDS011;5615;49.304;10.576;2024-01-07T06:01:18;8.43;;;6.60;;
11121;SDS011;5615;49.304;10.576;2024-01-07T06:03:45;7.93;;;5.90;;
11121;SDS011;5615;49.304;10.576;2024-01-07T06:06:12;8.70;;;6.47;;
11121;SDS011;5615;49.304;10.576;2024-01-07T06:08:40;9.57;;;6.53;;
11121;SDS011;5615;49.304;10.576;2024-01-07T06:11:07;8.07;;;6.07;;
11121;SDS011;5615;49.304;10.576;2024-01-07T06:13:34;8.10;;;6.30;;
11121;SDS011;5615;49.304;10.576;2024-01-07T06:16:01;7.93;;;5.97;;
11121;SDS011;5615;49.304;10.576;2024-01-07T06:18:27;8.73;;;6.63;;
11121;SDS011;5615;49.304;10.576;2024-01-07T06:20:54;7.70;;;6.10;;
11121;SDS011;5615;49.304;10.576;2024-01-07T06:23:21;9.77;;;7.13;;
11121;SDS011;5615;49.304;10.576;2024-01-07T06:25:49;8.50;;;6.83;;
11121;SDS011;5615;49.304;10.576;2024-01-07T06:28:15;7.03;;;6.27;;
11121;SDS011;5615;49.304;10.576;2024-01-07T06:30:42;9.40;;;6.80;;
11121;SDS011;5615;49.304;10.576;2024-01-07T06:33:09;8.97;;;6.87;;
11121;SDS011;5615;49.304;10.576;2024-01-07T06:35:37;9.23;;;7.40;;
11121;SDS011;5615;49.304;10.576;2024-01-07T06:38:04;8.40;;;7.03;;
11121;SDS011;5615;49.304;10.576;2024-01-07T06:40:31;9.53;;;6.73;;
11121;SDS011;5615;49.304;10.576;2024-01-07T06:42:59;9.30;;;6.93;;
11121;SDS011;5615;49.304;10.576;2024-01-07T06:45:25;9.40;;;7.33;;
11121;SDS011;5615;49.304;10.576;2024-01-07T06:47:52;10.57;;;7.83;;
11121;SDS011;5615;49.304;10.576;2024-01-07T06:50:19;9.47;;;6.87;;
11121;SDS011;5615;49.304;10.576;2024-01-07T06:52:46;8.27;;;6.70;;
11121;SDS011;5615;49.304;10.576;2024-01-07T06:55:13;9.17;;;7.40;;
11121;SDS011;5615;49.304;10.576;2024-01-07T06:57:39;9.47;;;6.93;;
11121;SDS011;5615;49.304;10.576;2024-01-07T07:00:08;9.00;;;7.13;;
11121;SDS011;5615;49.304;10.576;2024-01-07T07:02:35;9.97;;;7.67;;
11121;SDS011;5615;49.304;10.576;2024-01-07T07:05:02;10.43;;;7.63;;
11121;SDS011;5615;49.304;10.576;2024-01-07T07:07:28;9.43;;;7.70;;
11121;SDS011;5615;49.304;10.576;2024-01-07T07:09:55;9.07;;;7.47;;
11121;SDS011;5615;49.304;10.576;2024-01-07T07:12:22;11.37;;;8.20;;
11121;SDS011;5615;49.304;10.576;2024-01-07T07:14:48;10.53;;;8.03;;
11121;SDS011;5615;49.304;10.576;2024-01-07T07:17:16;11.83;;;8.67;;
11121;SDS011;5615;49.304;10.576;2024-01-07T07:19:43;9.93;;;7.63;;
11121;SDS011;5615;49.304;10.576;2024-01-07T07:22:10;11.57;;;7.40;;
11121;SDS011;5615;49.304;10.576;2024-01-07T07:24:39;10.67;;;7.23;;
11121;SDS011;5615;49.304;10.576;2024-01-07T07:27:06;14.17;;;8.43;;
11121;SDS011;5615;49.304;10.576;2024-01-07T07:29:33;12.27;;;8.90;;
11121;SDS011;5615;49.304;10.576;2024-01-07T07:31:59;11.40;;;8.87;;
11121;SDS011;5615;49.304;10.576;2024-01-07T07:34:27;12.47;;;8.87;;
11121;SDS011;5615;49.304;10.576;2024-01-07T07:36:54;13.93;;;8.83;;
11121;SDS011;5615;49.304;10.576;2024-01-07T07:39:21;11.20;;;8.07;;
11121;SDS011;5615;49.304;10.576;2024-01-07T07:41:47;11.07;;;8.17;;
11121;SDS011;5615;49.304;10.576;2024-01-07T07:44:14;11.23;;;8.43;;
11121;SDS011;5615;49.304;10.576;2024-01-07T07:46:41;13.07;;;9.17;;
11121;SDS011;5615;49.304;10.576;2024-01-07T07:49:07;11.37;;;8.93;;
11121;SDS011;5615;49.304;10.576;2024-01-07T07:51:35;13.13;;;9.43;;
11121;SDS011;5615;49.304;10.576;2024-01-07T07:54:02;13.90;;;9.77;;
11121;SDS011;5615;49.304;10.576;2024-01-07T07:56:29;12.03;;;9.27;;
11121;SDS011;5615;49.304;10.576;2024-01-07T07:58:56;13.13;;;9.40;;
11121;SDS011;5615;49.304;10.576;2024-01-07T08:01:22;12.67;;;9.47;;
11121;SDS011;5615;49.304;10.576;2024-01-07T08:03:49;13.80;;;9.73;;
11121;SDS011;5615;49.304;10.576;2024-01-07T08:06:16;11.77;;;9.10;;
11121;SDS011;5615;49.304;10.576;2024-01-07T08:08:43;14.70;;;10.10;;
11121;SDS011;5615;49.304;10.576;2024-01-07T08:11:10;15.43;;;10.53;;
11121;SDS011;5615;49.304;10.576;2024-01-07T08:13:37;14.20;;;9.77;;
11121;SDS011;5615;49.304;10.576;2024-01-07T08:16:04;14.30;;;10.20;;
11121;SDS011;5615;49.304;10.576;2024-01-07T08:18:31;14.33;;;9.90;;
11121;SDS011;5615;49.304;10.576;2024-01-07T08:20:58;13.40;;;9.77;;
11121;SDS011;5615;49.304;10.576;2024-01-07T08:23:25;11.73;;;9.60;;
11121;SDS011;5615;49.304;10.576;2024-01-07T08:25:53;14.83;;;10.17;;
11121;SDS011;5615;49.304;10.576;2024-01-07T08:28:20;13.63;;;9.70;;
11121;SDS011;5615;49.304;10.576;2024-01-07T08:30:47;14.20;;;10.07;;
11121;SDS011;5615;49.304;10.576;2024-01-07T08:33:14;12.83;;;9.23;;
11121;SDS011;5615;49.304;10.576;2024-01-07T08:35:41;14.43;;;10.40;;
11121;SDS011;5615;49.304;10.576;2024-01-07T08:38:07;12.20;;;9.60;;
11121;SDS011;5615;49.304;10.576;2024-01-07T08:40:34;13.03;;;9.73;;
11121;SDS011;5615;49.304;10.576;2024-01-07T08:43:01;11.23;;;9.23;;
11121;SDS011;5615;49.304;10.576;2024-01-07T08:45:28;14.20;;;9.93;;
11121;SDS011;5615;49.304;10.576;2024-01-07T08:47:54;12.60;;;8.87;;
11121;SDS011;5615;49.304;10.576;2024-01-07T08:50:21;14.60;;;9.20;;
11121;SDS011;5615;49.304;10.576;2024-01-07T08:52:48;11.53;;;9.33;;
11121;SDS011;5615;49.304;10.576;2024-01-07T08:55:14;12.93;;;9.60;;
11121;SDS011;5615;49.304;10.576;2024-01-07T08:57:41;12.97;;;9.37;;
11121;SDS011;5615;49.304;10.576;2024-01-07T09:00:10;11.47;;;8.97;;
11121;SDS011;5615;49.304;10.576;2024-01-07T09:02:37;12.60;;;9.73;;
11121;SDS011;5615;49.304;10.576;2024-01-07T09:05:05;15.70;;;10.53;;
11121;SDS011;5615;49.304;10.576;2024-01-07T09:07:32;12.70;;;9.57;;
11121;SDS011;5615;49.304;10.576;2024-01-07T09:09:59;12.80;;;9.80;;
11121;SDS011;5615;49.304;10.576;2024-01-07T09:12:26;13.33;;;10.20;;
11121;SDS011;5615;49.304;10.576;2024-01-07T09:14:53;13.60;;;10.40;;
11121;SDS011;5615;49.304;10.576;2024-01-07T09:17:21;16.27;;;11.10;;
11121;SDS011;5615;49.304;10.576;2024-01-07T09:19:47;15.37;;;10.93;;
11121;SDS011;5615;49.304;10.576;2024-01-07T09:22:14;14.77;;;10.77;;
11121;SDS011;5615;49.304;10.576;2024-01-07T09:24:41;14.83;;;10.73;;
11121;SDS011;5615;49.304;10.576;2024-01-07T09:27:07;17.40;;;12.23;;
11121;SDS011;5615;49.304;10.576;2024-01-07T09:29:34;16.63;;;11.67;;
11121;SDS011;5615;49.304;10.576;2024-01-07T09:32:01;15.17;;;11.90;;
11121;SDS011;5615;49.304;10.576;2024-01-07T09:34:29;17.07;;;12.33;;
11121;SDS011;5615;49.304;10.576;2024-01-07T09:36:56;16.90;;;12.00;;
11121;SDS011;5615;49.304;10.576;2024-01-07T09:39:22;16.13;;;11.73;;
11121;SDS011;5615;49.304;10.576;2024-01-07T09:41:50;17.07;;;12.00;;
11121;SDS011;5615;49.304;10.576;2024-01-07T09:44:17;15.40;;;11.73;;
11121;SDS011;5615;49.304;10.576;2024-01-07T09:46:44;16.30;;;11.57;;
11121;SDS011;5615;49.304;10.576;2024-01-07T09:49:14;16.37;;;12.13;;
11121;SDS011;5615;49.304;10.576;2024-01-07T09:51:42;19.70;;;11.50;;
11121;SDS011;5615;49.304;10.576;2024-01-07T09:54:12;14.60;;;11.00;;
11121;SDS011;5615;49.304;10.576;2024-01-07T09:56:42;15.33;;;11.00;;
11121;SDS011;5615;49.304;10.576;2024-01-07T09:59:13;16.87;;;11.83;;
11121;SDS011;5615;49.304;10.576;2024-01-07T10:01:41;17.37;;;11.70;;
11121;SDS011;5615;49.304;10.576;2024-01-07T10:04:09;16.17;;;11.43;;
11121;SDS011;5615;49.304;10.576;2024-01-07T10:06:36;15.77;;;12.10;;
11121;SDS011;5615;49.304;10.576;2024-01-07T10:09:05;16.17;;;11.27;;
11121;SDS011;5615;49.304;10.576;2024-01-07T10:11:32;16.23;;;12.07;;
11121;SDS011;5615;49.304;10.576;2024-01-07T10:13:59;16.83;;;11.30;;
11121;SDS011;5615;49.304;10.576;2024-01-07T10:16:26;16.73;;;12.00;;
11121;SDS011;5615;49.304;10.576;2024-01-07T10:18:53;17.17;;;12.33;;
11121;SDS011;5615;49.304;10.576;2024-01-07T10:21:20;16.43;;;11.73;;
11121;SDS011;5615;49.304;10.576;2024-01-07T10:23:46;16.50;;;12.20;;
11121;SDS011;5615;49.304;10.576;2024-01-07T10:26:14;15.40;;;11.83;;
11121;SDS011;5615;49.304;10.576;2024-01-07T10:28:40;14.77;;;11.70;;
11121;SDS011;5615;49.304;10.576;2024-01-07T10:31:08;14.97;;;11.43;;
11121;SDS011;5615;49.304;10.576;2024-01-07T10:33:35;15.93;;;11.93;;
11121;SDS011;5615;49.304;10.576;2024-01-07T10:36:02;17.90;;;12.30;;
11121;SDS011;5615;49.304;10.576;2024-01-07T10:38:32;17.50;;;12.57;;
11121;SDS011;5615;49.304;10.576;2024-01-07T10:40:59;15.80;;;12.17;;
11121;SDS011;5615;49.304;10.576;2024-01-07T10:43:29;14.50;;;11.50;;
11121;SDS011;5615;49.304;10.576;2024-01-07T10:45:56;17.43;;;12.33;;
11121;SDS011;5615;49.304;10.576;2024-01-07T10:48:29;17.50;;;12.07;;
11121;SDS011;5615;49.304;10.576;2024-01-07T10:50:57;16.63;;;12.00;;
11121;SDS011;5615;49.304;10.576;2024-01-07T10:53:26;18.97;;;12.10;;
11121;SDS011;5615;49.304;10.576;2024-01-07T10:55:58;17.80;;;12.43;;
11121;SDS011;5615;49.304;10.576;2024-01-07T10:58:30;17.70;;;12.40;;
11121;SDS011;5615;49.304;10.576;2024-01-07T11:00:58;19.07;;;13.73;;
11121;SDS011;5615;49.304;10.576;2024-01-07T11:03:31;15.50;;;11.93;;
11121;SDS011;5615;49.304;10.576;2024-01-07T11:06:03;18.57;;;12.87;;
11121;SDS011;5615;49.304;10.576;2024-01-07T11:08:39;18.90;;;13.43;;
11121;SDS011;5615;49.304;10.576;2024-01-07T11:11:13;17.50;;;13.47;;
11121;SDS011;5615;49.304;10.576;2024-01-07T11:13:44;19.77;;;13.97;;
11121;SDS011;5615;49.304;10.576;2024-01-07T11:16:11;18.07;;;13.27;;
11121;SDS011;5615;49.304;10.576;2024-01-07T11:18:38;19.40;;;13.80;;
11121;SDS011;5615;49.304;10.576;2024-01-07T11:21:06;19.70;;;13.90;;
11121;SDS011;5615;49.304;10.576;2024-01-07T11:23:33;17.73;;;12.40;;
11121;SDS011;5615;49.304;10.576;2024-01-07T11:26:03;19.50;;;12.73;;
11121;SDS011;5615;49.304;10.576;2024-01-07T11:28:44;19.57;;;13.90;;
11121;SDS011;5615;49.304;10.576;2024-01-07T11:31:13;18.53;;;13.37;;
11121;SDS011;5615;49.304;10.576;2024-01-07T11:33:41;18.87;;;14.23;;
11121;SDS011;5615;49.304;10.576;2024-01-07T11:36:10;18.73;;;13.37;;
11121;SDS011;5615;49.304;10.576;2024-01-07T11:38:37;19.47;;;13.50;;
11121;SDS011;5615;49.304;10.576;2024-01-07T11:41:07;17.77;;;13.33;;
11121;SDS011;5615;49.304;10.576;2024-01-07T11:43:35;20.47;;;14.20;;
11121;SDS011;5615;49.304;10.576;2024-01-07T11:46:03;16.77;;;12.63;;
11121;SDS011;5615;49.304;10.576;2024-01-07T11:48:30;18.37;;;13.77;;
11121;SDS011;5615;49.304;10.576;2024-01-07T11:50:56;17.80;;;13.30;;
11121;SDS011;5615;49.304;10.576;2024-01-07T11:53:23;18.50;;;13.77;;
11121;SDS011;5615;49.304;10.576;2024-01-07T11:55:50;19.53;;;13.87;;
11121;SDS011;5615;49.304;10.576;2024-01-07T11:58:17;19.63;;;14.33;;
11121;SDS011;5615;49.304;10.576;2024-01-07T12:00:44;19.60;;;13.67;;
11121;SDS011;5615;49.304;10.576;2024-01-07T12:03:12;20.77;;;14.53;;
11121;SDS011;5615;49.304;10.576;2024-01-07T12:05:38;21.27;;;14.60;;
11121;SDS011;5615;49.304;10.576;2024-01-07T12:08:05;18.23;;;12.80;;
11121;SDS011;5615;49.304;10.576;2024-01-07T12:10:32;19.87;;;13.60;;
11121;SDS011;5615;49.304;10.576;2024-01-07T12:12:59;18.40;;;13.27;;
11121;SDS011;5615;49.304;10.576;2024-01-07T12:15:28;18.23;;;13.33;;
11121;SDS011;5615;49.304;10.576;2024-01-07T12:17:55;19.33;;;13.80;;
11121;SDS011;5615;49.304;10.576;2024-01-07T12:20:25;18.43;;;13.43;;
11121;SDS011;5615;49.304;10.576;2024-01-07T12:22:52;22.33;;;13.80;;
11121;SDS011;5615;49.304;10.576;2024-01-07T12:25:21;17.90;;;12.90;;
11121;SDS011;5615;49.304;10.576;2024-01-07T12:27:50;18.70;;;13.43;;
11121;SDS011;5615;49.304;10.576;2024-01-07T12:30:19;21.90;;;14.77;;
11121;SDS011;5615;49.304;10.576;2024-01-07T12:32:46;20.83;;;14.33;;
11121;SDS011;5615;49.304;10.576;2024-01-07T12:35:13;20.60;;;13.60;;
11121;SDS011;5615;49.304;10.576;2024-01-07T12:37:41;19.60;;;13.43;;
11121;SDS011;5615;49.304;10.576;2024-01-07T12:40:09;21.27;;;13.80;;
11121;SDS011;5615;49.304;10.576;2024-01-07T12:42:37;20.00;;;13.67;;
11121;SDS011;5615;49.304;10.576;2024-01-07T12:45:09;19.63;;;13.33;;
11121;SDS011;5615;49.304;10.576;2024-01-07T12:47:36;20.50;;;13.47;;
11121;SDS011;5615;49.304;10.576;2024-01-07T12:50:03;22.07;;;14.53;;
11121;SDS011;5615;49.304;10.576;2024-01-07T12:52:30;20.20;;;14.53;;
11121;SDS011;5615;49.304;10.576;2024-01-07T12:54:58;21.57;;;13.57;;
11121;SDS011;5615;49.304;10.576;2024-01-07T12:57:25;19.20;;;12.77;;
11121;SDS011;5615;49.304;10.576;2024-01-07T12:59:51;18.53;;;12.87;;
11121;SDS011;5615;49.304;10.576;2024-01-07T13:02:18;21.93;;;14.27;;
11121;SDS011;5615;49.304;10.576;2024-01-07T13:04:45;19.97;;;13.07;;
11121;SDS011;5615;49.304;10.576;2024-01-07T13:07:11;20.53;;;13.23;;
11121;SDS011;5615;49.304;10.576;2024-01-07T13:09:38;18.23;;;12.73;;
11121;SDS011;5615;49.304;10.576;2024-01-07T13:12:06;17.77;;;12.17;;
11121;SDS011;5615;49.304;10.576;2024-01-07T13:14:33;16.47;;;12.80;;
11121;SDS011;5615;49.304;10.576;2024-01-07T13:16:59;17.57;;;12.27;;
11121;SDS011;5615;49.304;10.576;2024-01-07T13:19:26;17.10;;;12.50;;
11121;SDS011;5615;49.304;10.576;2024-01-07T13:21:53;19.57;;;13.00;;
11121;SDS011;5615;49.304;10.576;2024-01-07T13:24:23;17.00;;;12.43;;
11121;SDS011;5615;49.304;10.576;2024-01-07T13:26:49;17.63;;;11.67;;
11121;SDS011;5615;49.304;10.576;2024-01-07T13:29:17;18.07;;;12.50;;
11121;SDS011;5615;49.304;10.576;2024-01-07T13:31:44;18.67;;;12.43;;
11121;SDS011;5615;49.304;10.576;2024-01-07T13:34:11;20.40;;;12.47;;
11121;SDS011;5615;49.304;10.576;2024-01-07T13:36:39;17.40;;;11.50;;
11121;SDS011;5615;49.304;10.576;2024-01-07T13:39:06;15.07;;;10.30;;
11121;SDS011;5615;49.304;10.576;2024-01-07T13:41:33;17.50;;;9.90;;
11121;SDS011;5615;49.304;10.576;2024-01-07T13:43:59;14.47;;;9.70;;
11121;SDS011;5615;49.304;10.576;2024-01-07T13:46:29;14.67;;;9.80;;
11121;SDS011;5615;49.304;10.576;2024-01-07T13:48:55;14.53;;;10.17;;
11121;SDS011;5615;49.304;10.576;2024-01-07T13:51:22;16.00;;;9.83;;
11121;SDS011;5615;49.304;10.576;2024-01-07T13:53:49;13.50;;;9.40;;
11121;SDS011;5615;49.304;10.576;2024-01-07T13:56:15;13.40;;;8.77;;
11121;SDS011;5615;49.304;10.576;2024-01-07T13:58:42;13.57;;;9.70;;
11121;SDS011;5615;49.304;10.576;2024-01-07T14:01:11;13.97;;;9.57;;
11121;SDS011;5615;49.304;10.576;2024-01-07T14:03:39;13.23;;;9.80;;
11121;SDS011;5615;49.304;10.576;2024-01-07T14:06:07;14.13;;;9.23;;
11121;SDS011;5615;49.304;10.576;2024-01-07T14:08:34;14.03;;;8.93;;
11121;SDS011;5615;49.304;10.576;2024-01-07T14:11:00;13.57;;;10.13;;
11121;SDS011;5615;49.304;10.576;2024-01-07T14:13:28;12.47;;;8.33;;
11121;SDS011;5615;49.304;10.576;2024-01-07T14:15:54;13.87;;;9.43;;
11121;SDS011;5615;49.304;10.576;2024-01-07T14:18:21;11.57;;;8.90;;
11121;SDS011;5615;49.304;10.576;2024-01-07T14:20:49;14.27;;;9.10;;
11121;SDS011;5615;49.304;10.576;2024-01-07T14:23:16;11.93;;;8.40;;
11121;SDS011;5615;49.304;10.576;2024-01-07T14:25:43;11.63;;;8.27;;